createdAt,value
2022-10-02T00:01:38.152Z,10.56
2022-10-02T00:04:13.434Z,10.60
2022-10-02T00:06:44.417Z,10.55
2022-10-02T00:09:21.753Z,10.67
2022-10-02T00:11:56.966Z,10.68
2022-10-02T00:14:29.277Z,10.76
2022-10-02T00:17:02.143Z,10.77
2022-10-02T00:19:30.708Z,10.72
2022-10-02T00:22:12.965Z,10.71
2022-10-02T00:24:47.636Z,10.72
2022-10-02T00:27:28.512Z,10.70
2022-10-02T00:30:00.958Z,10.74
2022-10-02T00:32:35.391Z,10.79
2022-10-02T00:35:37.323Z,10.81
2022-10-02T00:38:15.842Z,10.87
2022-10-02T00:41:04.579Z,10.87
2022-10-02T00:43:39.194Z,10.88
2022-10-02T00:46:28.416Z,10.83
2022-10-02T00:49:14.104Z,10.86
2022-10-02T00:51:53.589Z,10.88
2022-10-02T00:54:49.384Z,10.95
2022-10-02T00:57:31.624Z,10.93
2022-10-02T01:00:06.056Z,10.95
2022-10-02T01:03:09.772Z,10.89
2022-10-02T01:05:40.136Z,10.84
2022-10-02T01:08:09.109Z,10.85
2022-10-02T01:10:39.243Z,10.85
2022-10-02T01:13:08.508Z,10.83
2022-10-02T01:15:40.187Z,10.78
2022-10-02T01:18:11.077Z,10.74
2022-10-02T01:20:43.484Z,10.82
2022-10-02T01:23:25.024Z,10.73
2022-10-02T01:25:55.094Z,10.82
2022-10-02T01:28:24.264Z,10.76
2022-10-02T01:30:56.607Z,10.76
2022-10-02T01:33:25.205Z,10.76
2022-10-02T01:35:53.881Z,10.72
2022-10-02T01:38:24.868Z,10.63
2022-10-02T01:40:54.803Z,10.69
2022-10-02T01:43:28.216Z,10.74
2022-10-02T01:46:07.069Z,10.70
2022-10-02T01:48:46.147Z,10.66
2022-10-02T01:51:28.141Z,10.60
2022-10-02T01:54:06.274Z,10.55
2022-10-02T01:56:44.464Z,10.50
2022-10-02T01:59:23.589Z,10.50
2022-10-02T02:02:06.613Z,10.53
2022-10-02T02:04:43.490Z,10.45
2022-10-02T02:07:18.272Z,10.57
2022-10-02T02:09:57.037Z,10.49
2022-10-02T02:12:35.244Z,10.47
2022-10-02T02:15:08.725Z,10.44
2022-10-02T02:17:47.584Z,10.46
2022-10-02T02:20:19.869Z,10.43
2022-10-02T02:22:52.598Z,10.40
2022-10-02T02:25:24.415Z,10.47
2022-10-02T02:27:59.281Z,10.38
2022-10-02T02:30:31.731Z,10.33
2022-10-02T02:33:05.913Z,10.37
2022-10-02T02:35:38.987Z,10.35
2022-10-02T02:38:12.537Z,10.36
2022-10-02T02:40:45.138Z,10.36
2022-10-02T02:43:20.644Z,10.33
2022-10-02T02:45:53.991Z,10.32
2022-10-02T02:48:25.967Z,10.33
2022-10-02T02:50:59.455Z,10.36
2022-10-02T02:53:34.697Z,10.28
2022-10-02T02:56:07.035Z,10.27
2022-10-02T02:58:40.929Z,10.23
2022-10-02T03:01:09.662Z,10.19
2022-10-02T03:03:38.472Z,10.16
2022-10-02T03:06:25.531Z,10.19
2022-10-02T03:08:55.328Z,10.13
2022-10-02T03:11:38.202Z,10.09
2022-10-02T03:14:29.724Z,10.08
2022-10-02T03:17:09.521Z,10.03
2022-10-02T03:19:45.207Z,10.02
2022-10-02T03:22:21.968Z,9.97
2022-10-02T03:24:57.948Z,9.99
2022-10-02T03:27:35.179Z,9.96
2022-10-02T03:30:08.343Z,9.93
2022-10-02T03:32:38.933Z,9.93
2022-10-02T03:35:13.275Z,9.94
2022-10-02T03:37:43.515Z,9.93
2022-10-02T03:40:12.627Z,9.89
2022-10-02T03:42:41.371Z,9.90
2022-10-02T03:45:23.061Z,9.88
2022-10-02T03:48:00.808Z,9.85
2022-10-02T03:50:32.890Z,9.83
2022-10-02T03:53:12.266Z,9.83
2022-10-02T03:55:45.108Z,9.85
2022-10-02T03:58:16.915Z,9.84
2022-10-02T04:00:58.552Z,9.83
2022-10-02T04:03:31.914Z,9.86
2022-10-02T04:06:05.003Z,9.84
2022-10-02T04:08:37.210Z,9.86
2022-10-02T04:11:13.075Z,9.91
2022-10-02T04:13:48.392Z,9.90
2022-10-02T04:16:22.109Z,9.88
2022-10-02T04:18:56.130Z,9.93
2022-10-02T04:21:34.508Z,9.95
2022-10-02T04:24:10.972Z,9.97
2022-10-02T04:26:45.505Z,9.95
2022-10-02T04:29:19.927Z,9.98
2022-10-02T04:31:52.074Z,10.01
2022-10-02T04:34:20.840Z,10.13
2022-10-02T04:37:05.529Z,10.17
2022-10-02T04:39:46.368Z,10.20
2022-10-02T04:42:26.040Z,10.22
2022-10-02T04:45:11.418Z,10.27
2022-10-02T04:48:27.486Z,10.27
2022-10-02T04:51:08.774Z,10.27
2022-10-02T04:53:51.579Z,10.31
2022-10-02T04:56:42.269Z,10.37
2022-10-02T04:59:24.437Z,10.42
2022-10-02T05:02:07.598Z,10.46
2022-10-02T05:05:01.675Z,10.53
2022-10-02T05:07:50.419Z,10.57
2022-10-02T05:10:35.376Z,10.54
2022-10-02T05:13:15.881Z,10.62
2022-10-02T05:16:05.832Z,10.67
2022-10-02T05:18:53.104Z,10.63
2022-10-02T05:21:41.597Z,10.61
2022-10-02T05:24:34.163Z,10.57
2022-10-02T05:27:13.828Z,10.52
2022-10-02T05:29:58.904Z,10.52
2022-10-02T05:32:53.907Z,10.57
2022-10-02T05:35:31.882Z,10.57
2022-10-02T05:38:11.795Z,10.66
2022-10-02T05:40:50.668Z,10.58
2022-10-02T05:43:27.993Z,10.61
2022-10-02T05:45:59.894Z,10.69
2022-10-02T05:48:31.781Z,10.65
2022-10-02T05:51:06.181Z,10.70
2022-10-02T05:53:37.411Z,10.72
2022-10-02T05:56:13.317Z,10.74
2022-10-02T05:58:51.585Z,10.77
2022-10-02T06:01:27.981Z,10.84
2022-10-02T06:04:04.492Z,10.88
2022-10-02T06:06:39.150Z,10.92
2022-10-02T06:09:18.964Z,11.02
2022-10-02T06:11:54.323Z,11.09
2022-10-02T06:14:27.535Z,11.17
2022-10-02T06:17:01.856Z,11.08
2022-10-02T06:19:33.829Z,11.08
2022-10-02T06:22:08.498Z,11.02
2022-10-02T06:24:43.538Z,11.00
2022-10-02T06:27:21.523Z,10.93
2022-10-02T06:29:55.492Z,10.91
2022-10-02T06:32:33.330Z,10.97
2022-10-02T06:35:03.047Z,10.93
2022-10-02T06:37:49.231Z,10.92
2022-10-02T06:40:42.783Z,10.94
2022-10-02T06:43:26.342Z,10.92
2022-10-02T06:46:03.353Z,10.92
2022-10-02T06:48:40.925Z,10.92
2022-10-02T06:51:18.249Z,10.93
2022-10-02T06:54:00.520Z,10.91
2022-10-02T06:56:44.436Z,10.92
2022-10-02T06:59:30.176Z,10.89
2022-10-02T07:02:10.933Z,10.88
2022-10-02T07:04:54.339Z,10.83
2022-10-02T07:07:36.957Z,10.84
2022-10-02T07:10:19.192Z,10.81
2022-10-02T07:13:09.588Z,10.81
2022-10-02T07:15:58.733Z,10.83
2022-10-02T07:18:42.836Z,10.88
2022-10-02T07:21:17.249Z,10.86
2022-10-02T07:23:53.197Z,10.89
2022-10-02T07:26:48.816Z,10.92
2022-10-02T07:29:48.424Z,10.92
2022-10-02T07:32:54.112Z,10.96
2022-10-02T07:35:40.624Z,11.10
2022-10-02T07:38:21.995Z,11.15
2022-10-02T07:41:00.395Z,11.35
2022-10-02T07:43:44.890Z,11.45
2022-10-02T07:46:20.763Z,11.55
2022-10-02T07:49:00.244Z,11.66
2022-10-02T07:51:48.559Z,11.90
2022-10-02T07:54:56.583Z,11.99
2022-10-02T07:57:40.562Z,12.08
2022-10-02T08:00:15.145Z,12.21
2022-10-02T08:02:54.301Z,12.27
2022-10-02T08:05:27.891Z,12.33
2022-10-02T08:08:00.832Z,12.54
2022-10-02T08:10:37.892Z,12.68
2022-10-02T08:13:14.748Z,12.74
2022-10-02T08:15:47.289Z,12.81
2022-10-02T08:18:34.202Z,12.87
2022-10-02T08:21:10.071Z,13.04
2022-10-02T08:23:44.037Z,13.05
2022-10-02T08:26:20.045Z,13.22
2022-10-02T08:28:57.220Z,13.30
2022-10-02T08:31:26.893Z,13.42
2022-10-02T08:33:56.198Z,13.51
2022-10-02T08:36:48.344Z,13.64
2022-10-02T08:39:53.051Z,13.64
2022-10-02T08:42:57.755Z,13.66
2022-10-02T08:45:52.714Z,13.72
2022-10-02T08:48:31.799Z,13.77
2022-10-02T08:51:27.278Z,13.84
2022-10-02T08:54:35.200Z,14.02
2022-10-02T08:57:27.099Z,14.07
2022-10-02T09:00:24.004Z,14.12
2022-10-02T09:03:30.027Z,14.17
2022-10-02T09:06:38.808Z,14.25
2022-10-02T09:10:01.611Z,14.31
2022-10-02T09:13:15.117Z,14.36
2022-10-02T09:15:47.948Z,14.46
2022-10-02T09:18:20.287Z,14.50
2022-10-02T09:21:15.557Z,14.63
2022-10-02T09:24:50.469Z,14.50
2022-10-02T09:27:51.656Z,14.55
2022-10-02T09:30:59.170Z,14.52
2022-10-02T09:34:04.338Z,14.55
2022-10-02T09:36:49.516Z,14.49
2022-10-02T09:39:52.827Z,14.52
2022-10-02T09:42:44.381Z,14.50
2022-10-02T09:45:33.236Z,14.44
2022-10-02T09:48:52.388Z,14.49
2022-10-02T09:52:05.316Z,14.53
2022-10-02T09:55:04.174Z,14.60
2022-10-02T09:57:57.424Z,14.61
2022-10-02T10:00:54.027Z,14.65
2022-10-02T10:04:00.821Z,14.82
2022-10-02T10:06:57.931Z,14.85
2022-10-02T10:10:12.385Z,14.82
2022-10-02T10:13:25.815Z,14.82
2022-10-02T10:16:41.339Z,14.74
2022-10-02T10:19:24.471Z,14.75
2022-10-02T10:22:12.446Z,14.77
2022-10-02T10:25:22.681Z,14.64
2022-10-02T10:28:14.624Z,14.49
2022-10-02T10:31:10.145Z,14.37
2022-10-02T10:34:21.912Z,14.24
2022-10-02T10:37:18.531Z,14.14
2022-10-02T10:40:26.592Z,14.47
2022-10-02T10:43:32.104Z,14.82
2022-10-02T10:46:33.532Z,14.83
2022-10-02T10:49:45.179Z,14.74
2022-10-02T10:52:21.671Z,14.58
2022-10-02T10:55:07.620Z,14.48
2022-10-02T10:57:51.361Z,14.40
2022-10-02T11:00:23.615Z,14.34
2022-10-02T11:03:17.342Z,14.29
2022-10-02T11:06:15.324Z,14.17
2022-10-02T11:09:20.059Z,14.15
2022-10-02T11:12:07.508Z,14.30
2022-10-02T11:14:50.657Z,14.57
2022-10-02T11:17:46.657Z,14.94
2022-10-02T11:20:51.446Z,15.19
2022-10-02T11:23:39.108Z,15.25
2022-10-02T11:26:34.367Z,15.19
2022-10-02T11:29:40.716Z,14.92
2022-10-02T11:32:28.392Z,14.60
2022-10-02T11:35:23.547Z,14.40
2022-10-02T11:38:07.183Z,14.29
2022-10-02T11:40:54.376Z,14.03
2022-10-02T11:43:43.954Z,14.36
2022-10-02T11:46:23.519Z,14.37
2022-10-02T11:49:20.413Z,14.87
2022-10-02T11:52:06.135Z,15.35
2022-10-02T11:54:46.842Z,15.76
2022-10-02T11:57:29.277Z,16.17
2022-10-02T12:00:33.774Z,16.18
2022-10-02T12:03:10.696Z,16.02
2022-10-02T12:05:55.709Z,16.12
2022-10-02T12:08:37.089Z,16.06
2022-10-02T12:11:11.508Z,16.25
2022-10-02T12:14:01.436Z,16.38
2022-10-02T12:16:42.678Z,16.43
2022-10-02T12:19:21.631Z,16.86
2022-10-02T12:22:18.349Z,17.13
2022-10-02T12:25:16.293Z,17.36
2022-10-02T12:27:55.860Z,17.56
2022-10-02T12:30:33.070Z,17.33
2022-10-02T12:33:25.320Z,16.79
2022-10-02T12:36:21.370Z,16.43
2022-10-02T12:39:05.492Z,16.73
2022-10-02T12:41:54.531Z,16.46
2022-10-02T12:44:44.224Z,16.08
2022-10-02T12:47:31.128Z,15.93
2022-10-02T12:50:11.903Z,15.95
2022-10-02T12:53:31.613Z,15.97
2022-10-02T12:56:20.211Z,16.00
2022-10-02T12:59:02.638Z,16.52
2022-10-02T13:02:49.064Z,17.04
2022-10-02T13:05:53.508Z,16.77
2022-10-02T13:08:34.388Z,16.51
2022-10-02T13:11:13.014Z,16.09
2022-10-02T13:14:07.696Z,16.03
2022-10-02T13:17:00.936Z,15.98
2022-10-02T13:19:36.883Z,15.80
2022-10-02T13:22:17.252Z,15.75
2022-10-02T13:25:01.032Z,15.62
2022-10-02T13:27:38.984Z,15.57
2022-10-02T13:30:15.275Z,15.58
2022-10-02T13:33:00.314Z,15.57
2022-10-02T13:36:04.226Z,15.59
2022-10-02T13:38:59.964Z,15.59
2022-10-02T13:41:41.439Z,15.58
2022-10-02T13:44:22.238Z,15.53
2022-10-02T13:47:18.946Z,15.45
2022-10-02T13:50:04.084Z,15.48
2022-10-02T13:52:42.603Z,15.43
2022-10-02T13:55:25.756Z,15.49
2022-10-02T13:58:08.622Z,15.63
2022-10-02T14:01:05.580Z,15.73
2022-10-02T14:03:48.135Z,15.69
2022-10-02T14:06:23.247Z,15.78
2022-10-02T14:09:22.938Z,15.93
2022-10-02T14:12:05.063Z,16.04
2022-10-02T14:14:51.167Z,16.22
2022-10-02T14:17:33.179Z,16.25
2022-10-02T14:20:32.261Z,16.31
2022-10-02T14:23:14.967Z,16.35
2022-10-02T14:25:55.724Z,16.36
2022-10-02T14:28:48.871Z,16.42
2022-10-02T14:31:35.125Z,16.52
2022-10-02T14:34:33.139Z,16.62
2022-10-02T14:37:35.262Z,16.65
2022-10-02T14:40:13.578Z,16.59
2022-10-02T14:43:12.073Z,16.46
2022-10-02T14:46:16.568Z,16.23
2022-10-02T14:49:12.468Z,16.23
2022-10-02T14:52:09.221Z,16.10
2022-10-02T14:55:06.891Z,15.99
2022-10-02T14:58:04.729Z,15.90
2022-10-02T15:00:44.707Z,15.75
2022-10-02T15:03:41.048Z,15.65
2022-10-02T15:06:27.107Z,15.72
2022-10-02T15:08:59.831Z,15.69
2022-10-02T15:11:53.035Z,15.63
2022-10-02T15:14:32.253Z,15.69
2022-10-02T15:17:21.882Z,15.53
2022-10-02T15:20:00.310Z,15.48
2022-10-02T15:22:35.847Z,15.45
2022-10-02T15:25:18.077Z,15.48
2022-10-02T15:27:54.671Z,15.43
2022-10-02T15:30:26.842Z,15.39
2022-10-02T15:33:11.495Z,15.38
2022-10-02T15:36:12.928Z,15.37
2022-10-02T15:38:55.445Z,15.32
2022-10-02T15:41:40.641Z,15.26
2022-10-02T15:44:44.802Z,15.26
2022-10-02T15:47:32.033Z,15.26
2022-10-02T15:50:24.327Z,15.20
2022-10-02T15:53:07.317Z,15.20
2022-10-02T15:55:41.892Z,15.18
2022-10-02T15:58:24.397Z,15.07
2022-10-02T16:01:18.743Z,14.94
2022-10-02T16:03:51.853Z,14.95
2022-10-02T16:06:35.309Z,14.84
2022-10-02T16:09:35.949Z,14.74
2022-10-02T16:12:29.835Z,14.81
2022-10-02T16:15:09.477Z,14.63
2022-10-02T16:18:04.477Z,14.63
2022-10-02T16:21:12.691Z,14.53
2022-10-02T16:24:06.128Z,14.42
2022-10-02T16:27:02.545Z,14.36
2022-10-02T16:29:42.808Z,14.36
2022-10-02T16:32:21.025Z,14.34
2022-10-02T16:35:11.386Z,14.22
2022-10-02T16:37:46.268Z,14.17
2022-10-02T16:40:29.426Z,14.17
2022-10-02T16:43:36.853Z,14.11
2022-10-02T16:46:11.164Z,14.05
2022-10-02T16:48:43.609Z,14.02
2022-10-02T16:51:27.496Z,13.92
2022-10-02T16:54:02.309Z,13.84
2022-10-02T16:56:35.606Z,13.76
2022-10-02T16:59:12.882Z,13.72
2022-10-02T17:02:12.687Z,13.63
2022-10-02T17:04:47.124Z,13.58
2022-10-02T17:07:42.628Z,13.55
2022-10-02T17:10:22.453Z,13.47
2022-10-02T17:12:58.903Z,13.45
2022-10-02T17:15:35.864Z,13.35
2022-10-02T17:18:18.836Z,13.47
2022-10-02T17:20:52.023Z,13.40
2022-10-02T17:23:28.019Z,13.29
2022-10-02T17:26:07.048Z,13.20
2022-10-02T17:28:44.988Z,13.15
2022-10-02T17:31:35.709Z,13.12
2022-10-02T17:34:20.014Z,13.07
2022-10-02T17:37:02.326Z,13.11
2022-10-02T17:39:57.170Z,13.00
2022-10-02T17:42:53.114Z,12.91
2022-10-02T17:45:32.989Z,12.85
2022-10-02T17:48:20.421Z,12.89
2022-10-02T17:51:40.471Z,12.86
2022-10-02T17:54:37.932Z,12.83
2022-10-02T17:57:30.007Z,12.76
2022-10-02T18:00:13.130Z,12.78
2022-10-02T18:02:56.372Z,12.80
2022-10-02T18:05:33.816Z,12.71
2022-10-02T18:08:18.812Z,12.65
2022-10-02T18:11:01.173Z,12.63
2022-10-02T18:13:42.593Z,12.59
2022-10-02T18:16:29.881Z,12.56
2022-10-02T18:19:27.852Z,12.56
2022-10-02T18:22:12.624Z,12.54
2022-10-02T18:25:12.386Z,12.52
2022-10-02T18:28:10.507Z,12.56
2022-10-02T18:30:49.286Z,12.52
2022-10-02T18:34:06.939Z,12.63
2022-10-02T18:36:54.425Z,12.59
2022-10-02T18:39:41.019Z,12.62
2022-10-02T18:42:39.952Z,12.69
2022-10-02T18:45:27.444Z,12.69
2022-10-02T18:48:19.626Z,12.71
2022-10-02T18:51:04.462Z,12.68
2022-10-02T18:53:59.519Z,12.65
2022-10-02T18:56:44.573Z,12.68
2022-10-02T18:59:23.480Z,12.71
2022-10-02T19:02:02.652Z,12.77
2022-10-02T19:05:04.024Z,12.73
2022-10-02T19:07:42.267Z,12.69
2022-10-02T19:10:29.589Z,12.65
2022-10-02T19:13:04.600Z,12.66
2022-10-02T19:15:34.753Z,12.60
2022-10-02T19:18:04.937Z,12.72
2022-10-02T19:20:48.235Z,12.69
2022-10-02T19:23:26.312Z,12.57
2022-10-02T19:25:57.186Z,12.55
2022-10-02T19:28:30.219Z,12.50
2022-10-02T19:31:02.123Z,12.58
2022-10-02T19:33:45.133Z,12.55
2022-10-02T19:36:19.380Z,12.52
2022-10-02T19:38:54.759Z,12.49
2022-10-02T19:41:24.592Z,12.44
2022-10-02T19:43:58.990Z,12.35
2022-10-02T19:46:35.750Z,12.29
2022-10-02T19:49:05.987Z,12.29
2022-10-02T19:51:44.173Z,12.23
2022-10-02T19:54:17.338Z,12.18
2022-10-02T19:56:47.066Z,12.22
2022-10-02T19:59:20.270Z,12.23
2022-10-02T20:01:52.993Z,12.32
2022-10-02T20:04:24.550Z,12.24
2022-10-02T20:06:56.555Z,12.21
2022-10-02T20:09:34.649Z,12.19
2022-10-02T20:12:08.381Z,12.16
2022-10-02T20:14:43.636Z,12.13
2022-10-02T20:17:13.487Z,12.09
2022-10-02T20:19:48.274Z,12.06
2022-10-02T20:22:25.480Z,12.05
2022-10-02T20:24:59.795Z,12.07
2022-10-02T20:27:34.880Z,12.06
2022-10-02T20:30:12.008Z,12.06
2022-10-02T20:32:47.307Z,12.04
2022-10-02T20:35:20.053Z,12.05
2022-10-02T20:37:52.366Z,12.05
2022-10-02T20:40:26.621Z,12.06
2022-10-02T20:43:01.539Z,12.01
2022-10-02T20:45:37.865Z,12.00
2022-10-02T20:48:56.024Z,11.85
2022-10-02T20:51:45.049Z,11.78
2022-10-02T20:54:33.558Z,11.90
2022-10-02T20:57:20.866Z,11.92
2022-10-02T21:00:05.633Z,11.83
2022-10-02T21:03:05.044Z,11.89
2022-10-02T21:05:57.626Z,11.85
2022-10-02T21:08:48.067Z,11.86
2022-10-02T21:11:27.711Z,11.72
2022-10-02T21:14:31.171Z,11.74
2022-10-02T21:17:24.018Z,11.70
2022-10-02T21:20:51.201Z,11.70
2022-10-02T21:23:56.333Z,11.71
2022-10-02T21:26:49.187Z,11.72
2022-10-02T21:29:54.841Z,11.63
2022-10-02T21:32:42.500Z,11.59
2022-10-02T21:35:16.950Z,11.57
2022-10-02T21:38:01.344Z,11.58
2022-10-02T21:41:01.544Z,11.51
2022-10-02T21:44:00.198Z,11.45
2022-10-02T21:46:45.582Z,11.49
2022-10-02T21:50:03.407Z,11.53
2022-10-02T21:53:03.756Z,11.49
2022-10-02T21:56:04.566Z,11.48
2022-10-02T21:59:08.240Z,11.44
2022-10-02T22:02:14.549Z,11.46
2022-10-02T22:05:23.565Z,11.47
2022-10-02T22:08:01.055Z,11.51
2022-10-02T22:10:35.377Z,11.41
2022-10-02T22:13:18.163Z,11.41
2022-10-02T22:15:56.134Z,11.40
2022-10-02T22:18:34.147Z,11.44
2022-10-02T22:21:31.866Z,11.40
2022-10-02T22:24:17.887Z,11.35
2022-10-02T22:27:05.878Z,11.30
2022-10-02T22:29:45.843Z,11.32
2022-10-02T22:32:50.652Z,11.35
2022-10-02T22:35:29.945Z,11.22
2022-10-02T22:38:13.180Z,11.26
2022-10-02T22:40:48.092Z,11.19
2022-10-02T22:43:25.794Z,11.17
2022-10-02T22:46:01.328Z,11.21
2022-10-02T22:48:38.907Z,11.20
2022-10-02T22:51:17.347Z,11.17
2022-10-02T22:53:52.273Z,11.14
2022-10-02T22:56:28.847Z,11.12
2022-10-02T22:59:10.556Z,11.09
2022-10-02T23:01:47.412Z,11.10
2022-10-02T23:04:26.264Z,11.00
2022-10-02T23:07:01.229Z,11.06
2022-10-02T23:09:41.639Z,11.00
2022-10-02T23:12:16.277Z,10.99
2022-10-02T23:14:58.447Z,10.92
2022-10-02T23:17:36.853Z,10.99
2022-10-02T23:20:13.163Z,10.92
2022-10-02T23:22:51.424Z,10.94
2022-10-02T23:25:26.213Z,10.92
2022-10-02T23:27:59.213Z,10.86
2022-10-02T23:30:29.933Z,10.90
2022-10-02T23:33:04.109Z,10.90
2022-10-02T23:35:40.070Z,10.84
2022-10-02T23:38:17.121Z,10.89
2022-10-02T23:41:22.306Z,10.93
2022-10-02T23:44:00.782Z,10.92
2022-10-02T23:46:35.866Z,10.92
2022-10-02T23:49:05.918Z,10.98
2022-10-02T23:51:52.189Z,11.00
2022-10-02T23:54:42.151Z,10.95
2022-10-02T23:57:33.268Z,10.99
